createdAt,value
2023-01-04T00:00:07.146Z,3.50
2023-01-04T00:02:33.989Z,3.50
2023-01-04T00:05:00.771Z,3.60
2023-01-04T00:07:29.803Z,3.60
2023-01-04T00:09:56.860Z,3.50
2023-01-04T00:12:23.614Z,3.60
2023-01-04T00:14:50.222Z,3.60
2023-01-04T00:17:16.859Z,3.70
2023-01-04T00:19:43.624Z,3.70
2023-01-04T00:22:10.390Z,3.60
2023-01-04T00:24:37.003Z,3.50
2023-01-04T00:27:03.722Z,3.60
2023-01-04T00:29:30.690Z,3.50
2023-01-04T00:31:57.350Z,3.40
2023-01-04T00:34:23.968Z,3.30
2023-01-04T00:36:50.586Z,3.40
2023-01-04T00:39:17.292Z,3.60
2023-01-04T00:42:00.652Z,3.60
2023-01-04T00:44:28.900Z,3.40
2023-01-04T00:46:55.787Z,3.40
2023-01-04T00:49:22.671Z,3.30
2023-01-04T00:51:49.368Z,3.10
2023-01-04T00:54:16.644Z,2.90
2023-01-04T00:56:44.201Z,2.80
2023-01-04T00:59:13.228Z,2.70
2023-01-04T01:01:41.172Z,2.80
2023-01-04T01:04:10.688Z,2.70
2023-01-04T01:06:37.384Z,2.80
2023-01-04T01:09:04.268Z,2.70
2023-01-04T01:11:31.543Z,2.70
2023-01-04T01:13:58.779Z,2.70
2023-01-04T01:16:53.149Z,2.70
2023-01-04T01:19:13.802Z,2.90
2023-01-04T01:21:40.738Z,2.70
2023-01-04T01:24:10.141Z,2.60
2023-01-04T01:26:36.766Z,2.60
2023-01-04T01:29:03.420Z,2.50
2023-01-04T01:31:30.301Z,2.80
2023-01-04T01:33:57.602Z,2.70
2023-01-04T01:36:25.555Z,2.80
2023-01-04T01:38:52.748Z,2.60
2023-01-04T01:41:32.810Z,2.40
2023-01-04T01:44:01.008Z,2.50
2023-01-04T01:46:50.320Z,2.60
2023-01-04T01:49:29.102Z,2.40
2023-01-04T01:51:59.078Z,2.30
2023-01-04T01:54:35.673Z,2.40
2023-01-04T01:57:07.137Z,2.50
2023-01-04T01:59:38.406Z,2.20
2023-01-04T02:02:05.298Z,2.10
2023-01-04T02:04:32.899Z,2.30
2023-01-04T02:07:00.601Z,2.30
2023-01-04T02:09:29.644Z,2.10
2023-01-04T02:11:56.318Z,1.80
2023-01-04T02:14:29.186Z,1.90
2023-01-04T02:17:13.154Z,2.00
2023-01-04T02:20:11.086Z,2.20
2023-01-04T02:23:14.857Z,2.40
2023-01-04T02:26:02.859Z,2.20
2023-01-04T02:28:54.405Z,2.20
2023-01-04T02:31:53.156Z,2.20
2023-01-04T02:34:25.865Z,2.30
2023-01-04T02:37:18.685Z,2.20
2023-01-04T02:40:03.724Z,2.20
2023-01-04T02:43:02.347Z,2.10
2023-01-04T02:45:44.629Z,2.10
2023-01-04T02:48:29.793Z,2.00
2023-01-04T02:50:58.808Z,1.70
2023-01-04T02:53:37.757Z,1.70
2023-01-04T02:56:35.639Z,1.80
2023-01-04T02:59:15.134Z,1.70
2023-01-04T03:02:15.653Z,1.80
2023-01-04T03:05:19.006Z,1.90
2023-01-04T03:07:54.613Z,2.10
2023-01-04T03:10:44.147Z,2.00
2023-01-04T03:13:42.162Z,2.10
2023-01-04T03:16:19.582Z,2.00
2023-01-04T03:18:50.946Z,2.00
2023-01-04T03:21:19.476Z,1.90
2023-01-04T03:24:06.736Z,1.80
2023-01-04T03:27:07.511Z,1.80
2023-01-04T03:30:03.091Z,1.80
2023-01-04T03:32:51.720Z,1.90
2023-01-04T03:35:28.090Z,1.90
2023-01-04T03:38:41.225Z,2.00
2023-01-04T03:41:46.099Z,2.20
2023-01-04T03:44:37.865Z,2.30
2023-01-04T03:47:29.369Z,2.10
2023-01-04T03:50:04.835Z,1.80
2023-01-04T03:52:33.263Z,1.70
2023-01-04T03:55:01.486Z,1.80
2023-01-04T03:57:28.779Z,2.00
2023-01-04T04:00:07.406Z,1.90
2023-01-04T04:02:35.881Z,1.70
2023-01-04T04:05:21.972Z,1.60
2023-01-04T04:08:07.427Z,1.90
2023-01-04T04:10:34.170Z,1.80
2023-01-04T04:13:00.890Z,1.70
2023-01-04T04:15:27.774Z,1.80
2023-01-04T04:17:54.402Z,1.90
2023-01-04T04:20:21.056Z,1.90
2023-01-04T04:22:47.698Z,1.60
2023-01-04T04:25:14.314Z,1.70
2023-01-04T04:27:40.977Z,2.00
2023-01-04T04:30:08.224Z,2.00
2023-01-04T04:32:34.855Z,2.00
2023-01-04T04:35:01.698Z,1.70
2023-01-04T04:37:30.863Z,1.80
2023-01-04T04:39:58.174Z,1.80
2023-01-04T04:42:24.797Z,1.90
2023-01-04T04:44:51.528Z,1.70
2023-01-04T04:47:18.227Z,1.60
2023-01-04T04:49:44.919Z,1.70
2023-01-04T04:52:11.559Z,1.80
2023-01-04T04:54:38.315Z,1.90
2023-01-04T04:57:04.943Z,1.80
2023-01-04T04:59:31.610Z,1.80
2023-01-04T05:01:58.507Z,2.00
2023-01-04T05:04:25.316Z,2.10
2023-01-04T05:06:52.960Z,2.10
2023-01-04T05:09:19.640Z,1.90
2023-01-04T05:12:04.932Z,1.90
2023-01-04T05:14:31.538Z,2.10
2023-01-04T05:16:58.456Z,1.90
2023-01-04T05:19:25.191Z,1.80
2023-01-04T05:21:51.944Z,1.70
2023-01-04T05:24:18.609Z,2.00
2023-01-04T05:26:45.226Z,2.00
2023-01-04T05:29:31.801Z,2.00
2023-01-04T05:31:58.505Z,2.20
2023-01-04T05:34:25.204Z,2.20
2023-01-04T05:36:51.862Z,2.10
2023-01-04T05:39:18.483Z,2.10
2023-01-04T05:42:03.815Z,2.10
2023-01-04T05:44:30.452Z,2.10
2023-01-04T05:46:57.165Z,2.30
2023-01-04T05:49:23.855Z,2.20
2023-01-04T05:51:50.489Z,2.30
2023-01-04T05:54:21.350Z,2.40
2023-01-04T05:56:48.455Z,2.30
2023-01-04T05:59:16.034Z,2.20
2023-01-04T06:01:42.850Z,2.20
2023-01-04T06:04:09.756Z,2.30
2023-01-04T06:06:36.506Z,2.40
2023-01-04T06:09:03.189Z,2.60
2023-01-04T06:11:29.893Z,2.70
2023-01-04T06:13:56.570Z,2.80
2023-01-04T06:16:23.711Z,2.90
2023-01-04T06:18:50.439Z,2.90
2023-01-04T06:21:17.249Z,2.80
2023-01-04T06:23:43.880Z,2.80
2023-01-04T06:26:10.583Z,2.60
2023-01-04T06:28:40.935Z,2.60
2023-01-04T06:31:09.684Z,2.70
2023-01-04T06:33:36.688Z,2.60
2023-01-04T06:36:03.529Z,2.60
2023-01-04T06:38:31.159Z,2.60
2023-01-04T06:40:58.115Z,2.70
2023-01-04T06:43:25.355Z,3.00
2023-01-04T06:45:52.488Z,3.00
2023-01-04T06:48:19.219Z,3.00
2023-01-04T06:50:46.072Z,2.90
2023-01-04T06:53:12.922Z,2.80
2023-01-04T06:55:39.542Z,2.80
2023-01-04T06:58:06.148Z,3.00
2023-01-04T07:00:32.949Z,3.20
2023-01-04T07:03:14.091Z,3.10
2023-01-04T07:05:42.778Z,3.30
2023-01-04T07:08:09.690Z,3.30
2023-01-04T07:10:37.025Z,3.10
2023-01-04T07:13:04.278Z,3.20
2023-01-04T07:15:43.293Z,3.30
2023-01-04T07:18:11.239Z,3.40
2023-01-04T07:20:38.687Z,3.10
2023-01-04T07:23:07.088Z,3.10
2023-01-04T07:25:34.017Z,3.20
2023-01-04T07:28:00.700Z,3.30
2023-01-04T07:30:27.861Z,3.30
2023-01-04T07:32:55.619Z,3.30
2023-01-04T07:35:23.530Z,3.40
2023-01-04T07:37:57.463Z,3.40
2023-01-04T07:40:25.636Z,3.40
2023-01-04T07:42:59.479Z,3.70
2023-01-04T07:45:26.687Z,3.70
2023-01-04T07:47:53.533Z,3.70
2023-01-04T07:50:20.173Z,3.90
2023-01-04T07:52:46.799Z,4.10
2023-01-04T07:55:13.440Z,3.90
2023-01-04T07:57:40.076Z,3.90
2023-01-04T08:00:07.377Z,4.00
2023-01-04T08:02:38.890Z,4.00
2023-01-04T08:05:06.382Z,4.00
2023-01-04T08:07:33.270Z,4.10
2023-01-04T08:09:59.893Z,4.20
2023-01-04T08:12:26.573Z,4.50
2023-01-04T08:14:53.209Z,4.50
2023-01-04T08:17:19.864Z,4.50
2023-01-04T08:19:46.765Z,4.50
2023-01-04T08:22:14.261Z,4.40
2023-01-04T08:24:40.987Z,4.40
2023-01-04T08:27:08.293Z,4.40
2023-01-04T08:29:35.579Z,4.50
2023-01-04T08:32:02.899Z,4.60
2023-01-04T08:34:29.986Z,4.60
2023-01-04T08:36:56.685Z,4.70
2023-01-04T08:39:23.607Z,4.70
2023-01-04T08:42:03.646Z,4.70
2023-01-04T08:44:38.103Z,4.90
2023-01-04T08:47:05.108Z,4.90
2023-01-04T08:49:31.914Z,5.00
2023-01-04T08:51:58.584Z,5.10
2023-01-04T08:54:25.316Z,5.10
2023-01-04T08:56:52.092Z,5.20
2023-01-04T08:59:18.790Z,5.30
2023-01-04T09:01:46.122Z,5.30
2023-01-04T09:04:12.975Z,5.20
2023-01-04T09:06:40.515Z,5.40
2023-01-04T09:09:07.269Z,5.60
2023-01-04T09:11:35.124Z,5.60
2023-01-04T09:14:07.944Z,5.60
2023-01-04T09:16:35.732Z,5.60
2023-01-04T09:19:02.582Z,5.60
2023-01-04T09:21:29.446Z,5.60
2023-01-04T09:23:57.848Z,5.50
2023-01-04T09:26:25.057Z,5.50
2023-01-04T09:28:53.838Z,5.70
2023-01-04T09:31:23.944Z,5.70
2023-01-04T09:36:41.020Z,5.90
2023-01-04T09:39:16.837Z,5.80
2023-01-04T09:41:57.982Z,5.80
2023-01-04T09:45:21.961Z,6.10
2023-01-04T09:47:43.675Z,6.40
2023-01-04T09:50:17.155Z,6.50
2023-01-04T09:53:04.381Z,6.60
2023-01-04T09:55:42.789Z,6.70
2023-01-04T09:58:38.110Z,6.90
2023-01-04T10:01:16.813Z,7.00
2023-01-04T10:03:52.018Z,7.00
2023-01-04T10:06:18.749Z,6.80
2023-01-04T10:08:45.547Z,6.90
2023-01-04T10:11:15.058Z,7.00
2023-01-04T10:13:53.752Z,6.90
2023-01-04T10:17:11.330Z,6.80
2023-01-04T10:22:52.843Z,6.50
2023-01-04T10:25:34.997Z,6.50
2023-01-04T10:28:24.049Z,6.60
2023-01-04T10:31:38.790Z,6.70
2023-01-04T10:34:15.296Z,6.70
2023-01-04T10:36:47.382Z,6.70
2023-01-04T10:39:17.155Z,6.60
2023-01-04T10:42:14.548Z,6.70
2023-01-04T10:44:55.397Z,6.60
2023-01-04T10:47:34.252Z,6.60
2023-01-04T10:50:08.390Z,6.40
2023-01-04T10:52:47.945Z,6.50
2023-01-04T10:55:22.077Z,6.40
2023-01-04T10:58:13.005Z,6.50
2023-01-04T11:00:53.352Z,6.40
2023-01-04T11:03:29.670Z,6.20
2023-01-04T11:06:09.144Z,6.00
2023-01-04T11:08:52.744Z,6.10
2023-01-04T11:11:29.746Z,6.00
2023-01-04T11:13:56.609Z,6.10
2023-01-04T11:16:23.417Z,6.30
2023-01-04T11:18:51.183Z,6.40
2023-01-04T11:21:23.029Z,6.50
2023-01-04T11:23:49.740Z,6.60
2023-01-04T11:26:21.696Z,6.60
2023-01-04T11:28:51.488Z,6.50
2023-01-04T11:31:50.788Z,6.40
2023-01-04T11:34:17.583Z,6.20
2023-01-04T11:36:46.330Z,6.10
2023-01-04T11:39:25.226Z,6.00
2023-01-04T11:42:04.970Z,6.00
2023-01-04T11:44:33.859Z,6.20
2023-01-04T11:47:19.876Z,6.50
2023-01-04T11:49:47.235Z,6.70
2023-01-04T11:52:35.339Z,6.70
2023-01-04T11:55:24.078Z,6.70
2023-01-04T11:58:12.289Z,6.80
2023-01-04T12:00:54.638Z,6.80
2023-01-04T12:03:29.153Z,6.70
2023-01-04T12:05:57.301Z,6.50
2023-01-04T12:08:31.991Z,6.60
2023-01-04T12:11:01.176Z,6.70
2023-01-04T12:13:29.537Z,7.00
2023-01-04T12:16:19.178Z,7.10
2023-01-04T12:18:46.567Z,7.10
2023-01-04T12:21:19.180Z,7.30
2023-01-04T12:23:47.088Z,7.40
2023-01-04T12:26:14.677Z,7.50
2023-01-04T12:28:44.316Z,7.70
2023-01-04T12:31:22.586Z,7.80
2023-01-04T12:33:49.928Z,7.80
2023-01-04T12:36:19.854Z,7.80
2023-01-04T12:38:52.985Z,7.70
2023-01-04T12:41:21.261Z,7.80
2023-01-04T12:43:49.894Z,8.10
2023-01-04T12:46:50.756Z,8.10
2023-01-04T12:49:27.426Z,8.20
2023-01-04T12:55:02.071Z,8.20
2023-01-04T12:57:37.235Z,8.20
2023-01-04T13:00:11.856Z,8.30
2023-01-04T13:02:44.818Z,8.30
2023-01-04T13:08:35.734Z,7.70
2023-01-04T13:11:04.940Z,7.70
2023-01-04T13:13:49.275Z,7.80
2023-01-04T13:16:39.755Z,7.80
2023-01-04T13:19:21.423Z,7.70
2023-01-04T13:21:49.683Z,7.50
2023-01-04T13:24:30.354Z,7.50
2023-01-04T13:26:58.706Z,7.50
2023-01-04T13:29:36.296Z,7.70
2023-01-04T13:32:04.362Z,7.80
2023-01-04T13:34:36.889Z,7.80
2023-01-04T13:37:13.583Z,8.10
2023-01-04T13:39:41.738Z,8.30
2023-01-04T13:42:20.443Z,8.10
2023-01-04T13:45:18.973Z,8.00
2023-01-04T13:47:47.546Z,7.90
2023-01-04T13:50:24.112Z,8.00
2023-01-04T13:53:03.613Z,8.00
2023-01-04T13:55:35.740Z,8.10
2023-01-04T13:58:05.174Z,8.10
2023-01-04T14:00:47.249Z,8.00
2023-01-04T14:03:26.494Z,7.80
2023-01-04T14:05:59.837Z,7.90
2023-01-04T14:08:37.052Z,8.00
2023-01-04T14:11:40.782Z,7.90
2023-01-04T14:14:30.125Z,8.00
2023-01-04T14:17:16.633Z,8.10
2023-01-04T14:19:51.406Z,8.10
2023-01-04T14:22:21.314Z,8.10
2023-01-04T14:25:09.723Z,8.10
2023-01-04T14:27:38.473Z,8.10
2023-01-04T14:30:20.445Z,8.10
2023-01-04T14:33:17.295Z,8.20
2023-01-04T14:35:47.873Z,8.20
2023-01-04T14:38:18.959Z,8.40
2023-01-04T14:40:46.238Z,8.40
2023-01-04T14:44:07.521Z,8.50
2023-01-04T14:46:34.341Z,8.50
2023-01-04T14:49:01.075Z,8.40
2023-01-04T14:51:48.573Z,8.30
2023-01-04T14:54:22.431Z,8.10
2023-01-04T14:56:51.492Z,8.20
2023-01-04T14:59:18.429Z,8.10
2023-01-04T15:01:45.261Z,7.90
2023-01-04T15:04:12.226Z,7.80
2023-01-04T15:06:59.674Z,7.70
2023-01-04T15:09:27.963Z,7.60
2023-01-04T15:11:55.240Z,7.60
2023-01-04T15:14:22.275Z,7.70
2023-01-04T15:16:49.155Z,7.60
2023-01-04T15:19:16.026Z,7.60
2023-01-04T15:21:42.722Z,7.70
2023-01-04T15:24:10.515Z,7.80
2023-01-04T15:26:41.936Z,7.80
2023-01-04T15:29:10.168Z,7.90
2023-01-04T15:31:39.765Z,7.90
2023-01-04T15:34:07.521Z,8.00
2023-01-04T15:36:38.318Z,7.90
2023-01-04T15:39:05.430Z,7.80
2023-01-04T15:41:50.659Z,7.80
2023-01-04T15:44:17.914Z,7.90
2023-01-04T15:46:48.091Z,8.10
2023-01-04T15:49:17.683Z,8.10
2023-01-04T15:51:45.206Z,8.00
2023-01-04T15:54:12.112Z,7.90
2023-01-04T15:56:38.984Z,7.90
2023-01-04T15:59:11.641Z,7.90
2023-01-04T16:01:38.585Z,7.90
2023-01-04T16:04:13.917Z,7.90
2023-01-04T16:06:41.080Z,7.90
2023-01-04T16:09:08.384Z,7.60
2023-01-04T16:11:35.143Z,7.60
2023-01-04T16:14:12.172Z,7.60
2023-01-04T16:16:48.637Z,7.90
2023-01-04T16:19:15.614Z,7.90
2023-01-04T16:21:42.276Z,7.80
2023-01-04T16:24:44.940Z,7.80
2023-01-04T16:27:01.153Z,7.70
2023-01-04T16:29:32.973Z,7.80
2023-01-04T16:32:00.407Z,7.90
2023-01-04T16:34:28.010Z,8.10
2023-01-04T16:36:57.645Z,8.20
2023-01-04T16:39:57.267Z,8.30
2023-01-04T16:42:14.774Z,8.40
2023-01-04T16:44:41.447Z,8.30
2023-01-04T16:47:17.993Z,8.50
2023-01-04T16:49:44.784Z,8.60
2023-01-04T16:52:13.063Z,8.60
2023-01-04T16:54:39.861Z,8.50
2023-01-04T16:57:09.515Z,8.40
2023-01-04T16:59:39.415Z,8.30
2023-01-04T17:02:06.301Z,8.10
2023-01-04T17:04:33.218Z,7.80
2023-01-04T17:06:59.903Z,7.80
2023-01-04T17:09:26.593Z,8.10
2023-01-04T17:15:00.776Z,8.00
2023-01-04T17:17:34.363Z,8.10
2023-01-04T17:20:01.090Z,8.10
2023-01-04T17:22:33.873Z,8.20
2023-01-04T17:25:01.211Z,8.20
2023-01-04T17:27:27.901Z,8.20
2023-01-04T17:29:54.698Z,8.30
2023-01-04T17:32:21.409Z,8.30
2023-01-04T17:34:50.272Z,8.30
2023-01-04T17:37:16.947Z,8.30
2023-01-04T17:39:43.675Z,8.20
2023-01-04T17:42:10.453Z,8.20
2023-01-04T17:44:37.121Z,8.10
2023-01-04T17:47:04.123Z,8.10
2023-01-04T17:49:32.343Z,8.20
2023-01-04T17:51:59.756Z,8.10
2023-01-04T17:54:26.905Z,8.20
2023-01-04T17:56:53.699Z,8.20
2023-01-04T17:59:20.399Z,8.30
2023-01-04T18:01:47.205Z,8.20
2023-01-04T18:04:14.123Z,8.00
2023-01-04T18:06:40.853Z,8.00
2023-01-04T18:09:08.929Z,8.10
2023-01-04T18:11:36.194Z,8.20
2023-01-04T18:14:06.266Z,8.10
2023-01-04T18:16:56.430Z,8.20
2023-01-04T18:19:31.338Z,8.00
2023-01-04T18:21:58.592Z,8.10
2023-01-04T18:24:43.839Z,8.10
2023-01-04T18:27:21.987Z,8.20
2023-01-04T18:29:49.078Z,8.10
2023-01-04T18:32:15.760Z,8.10
2023-01-04T18:34:42.499Z,8.10
2023-01-04T18:37:09.253Z,8.10
2023-01-04T18:39:35.996Z,8.10
2023-01-04T18:42:02.629Z,8.20
2023-01-04T18:44:39.724Z,8.20
2023-01-04T18:47:10.770Z,8.30
2023-01-04T18:49:38.521Z,8.10
2023-01-04T18:52:05.381Z,8.20
2023-01-04T18:54:32.608Z,8.20
2023-01-04T18:57:01.293Z,8.10
2023-01-04T18:59:31.808Z,8.10
2023-01-04T19:02:03.094Z,7.90
2023-01-04T19:04:32.749Z,8.10
2023-01-04T19:06:59.837Z,8.20
2023-01-04T19:09:27.498Z,8.20
2023-01-04T19:11:54.204Z,8.10
2023-01-04T19:14:20.956Z,8.10
2023-01-04T19:16:47.638Z,7.90
2023-01-04T19:19:14.415Z,7.90
2023-01-04T19:21:41.142Z,7.80
2023-01-04T19:24:07.984Z,7.70
2023-01-04T19:26:34.749Z,7.80
2023-01-04T19:29:01.454Z,7.80
2023-01-04T19:31:30.857Z,7.90
2023-01-04T19:33:57.484Z,8.10
2023-01-04T19:36:24.340Z,8.20
2023-01-04T19:38:51.228Z,8.00
2023-01-04T19:41:27.738Z,8.00
2023-01-04T19:43:55.956Z,8.10
2023-01-04T19:46:25.849Z,7.80
2023-01-04T19:48:52.675Z,7.70
2023-01-04T19:51:20.060Z,7.70
2023-01-04T19:53:46.785Z,7.60
2023-01-04T19:56:16.156Z,7.60
2023-01-04T19:58:43.625Z,7.60
2023-01-04T20:01:15.377Z,7.70
2023-01-04T20:03:43.479Z,7.70
2023-01-04T20:06:11.866Z,7.60
2023-01-04T20:08:40.075Z,7.70
2023-01-04T20:11:07.731Z,7.80
2023-01-04T20:13:34.681Z,7.80
2023-01-04T20:16:04.768Z,7.90
2023-01-04T20:18:32.249Z,8.00
2023-01-04T20:20:59.054Z,8.10
2023-01-04T20:23:25.841Z,8.00
2023-01-04T20:25:54.154Z,8.10
2023-01-04T20:28:23.000Z,7.90
2023-01-04T20:31:04.407Z,7.90
2023-01-04T20:33:31.529Z,8.10
2023-01-04T20:36:04.048Z,8.30
2023-01-04T20:38:53.288Z,8.20
2023-01-04T20:41:27.683Z,8.30
2023-01-04T20:44:00.412Z,8.30
2023-01-04T20:46:31.697Z,8.50
2023-01-04T20:49:00.249Z,8.50
2023-01-04T20:51:29.564Z,8.30
2023-01-04T20:53:59.587Z,8.30
2023-01-04T20:56:28.478Z,8.40
2023-01-04T20:58:55.661Z,8.40
2023-01-04T21:01:22.964Z,8.40
2023-01-04T21:03:50.585Z,8.40
2023-01-04T21:06:19.187Z,8.40
2023-01-04T21:08:47.334Z,8.40
2023-01-04T21:11:17.465Z,8.40
2023-01-04T21:13:44.650Z,8.30
2023-01-04T21:16:12.618Z,8.30
2023-01-04T21:18:39.423Z,8.30
2023-01-04T21:21:08.515Z,8.30
2023-01-04T21:23:35.402Z,8.50
2023-01-04T21:26:06.969Z,8.60
2023-01-04T21:28:33.934Z,8.60
2023-01-04T21:31:01.509Z,8.70
2023-01-04T21:33:28.214Z,8.60
2023-01-04T21:35:54.855Z,8.60
2023-01-04T21:38:21.552Z,8.70
2023-01-04T21:40:48.417Z,8.70
2023-01-04T21:43:18.697Z,8.70
2023-01-04T21:45:45.460Z,8.70
2023-01-04T21:48:12.156Z,8.70
2023-01-04T21:50:39.112Z,8.70
2023-01-04T21:53:10.026Z,8.80
2023-01-04T21:55:37.021Z,8.80
2023-01-04T21:58:13.365Z,8.90
2023-01-04T22:00:40.038Z,8.90
2023-01-04T22:03:06.882Z,8.90
2023-01-04T22:05:34.135Z,8.90
2023-01-04T22:08:11.418Z,8.80
2023-01-04T22:10:44.329Z,9.00
2023-01-04T22:13:11.265Z,8.90
2023-01-04T22:15:48.151Z,8.90
2023-01-04T22:18:27.789Z,9.10
2023-01-04T22:21:07.456Z,8.90
2023-01-04T22:23:34.743Z,8.70
2023-01-04T22:26:01.469Z,8.80
2023-01-04T22:28:34.701Z,9.00
2023-01-04T22:31:05.850Z,9.10
2023-01-04T22:33:33.957Z,9.00
2023-01-04T22:36:07.013Z,9.10
2023-01-04T22:38:55.037Z,8.90
2023-01-04T22:41:23.955Z,8.90
2023-01-04T22:43:58.874Z,9.00
2023-01-04T22:46:27.757Z,9.20
2023-01-04T22:48:59.716Z,9.00
2023-01-04T22:51:27.804Z,9.00
2023-01-04T22:54:02.711Z,9.10
2023-01-04T22:56:33.870Z,9.10
2023-01-04T22:59:09.860Z,9.00
2023-01-04T23:01:37.475Z,9.00
2023-01-04T23:04:21.645Z,9.00
2023-01-04T23:07:03.611Z,9.10
2023-01-04T23:09:33.624Z,9.00
2023-01-04T23:12:03.359Z,9.00
2023-01-04T23:14:34.692Z,9.00
2023-01-04T23:17:07.928Z,9.00
2023-01-04T23:19:36.061Z,9.00
2023-01-04T23:22:17.323Z,9.10
2023-01-04T23:25:10.162Z,9.10
2023-01-04T23:27:40.766Z,9.00
2023-01-04T23:30:18.362Z,9.10
2023-01-04T23:32:50.891Z,9.20
2023-01-04T23:35:20.565Z,9.20
2023-01-04T23:37:47.484Z,9.30
2023-01-04T23:40:23.326Z,9.20
2023-01-04T23:43:02.280Z,9.10
2023-01-04T23:45:38.845Z,9.20
2023-01-04T23:48:08.799Z,9.20
2023-01-04T23:50:35.766Z,9.20
2023-01-04T23:53:02.815Z,9.10
2023-01-04T23:55:29.484Z,9.20
2023-01-04T23:57:56.659Z,9.10
